sensor_id;sensor_type;location;lat;lon;timestamp;pressure;altitude;pressure_sealevel;temperature;humidity
82931;BME280;72705;53.346;10.248;2023-12-20T00:00:07;101034.00;;;5.08;100.00
82931;BME280;72705;53.346;10.248;2023-12-20T00:02:33;101012.75;;;4.96;100.00
82931;BME280;72705;53.346;10.248;2023-12-20T00:05:13;101030.59;;;5.06;100.00
82931;BME280;72705;53.346;10.248;2023-12-20T00:07:38;101024.06;;;4.99;100.00
82931;BME280;72705;53.346;10.248;2023-12-20T00:10:04;101021.13;;;4.91;100.00
82931;BME280;72705;53.346;10.248;2023-12-20T00:12:29;101027.59;;;5.00;100.00
82931;BME280;72705;53.346;10.248;2023-12-20T00:14:55;101044.59;;;4.99;100.00
82931;BME280;72705;53.346;10.248;2023-12-20T00:17:20;101036.69;;;4.97;100.00
82931;BME280;72705;53.346;10.248;2023-12-20T00:19:45;101020.84;;;4.83;100.00
82931;BME280;72705;53.346;10.248;2023-12-20T00:22:11;101041.16;;;4.97;100.00
82931;BME280;72705;53.346;10.248;2023-12-20T00:24:36;101023.41;;;4.84;100.00
82931;BME280;72705;53.346;10.248;2023-12-20T00:27:01;101020.28;;;4.91;100.00
82931;BME280;72705;53.346;10.248;2023-12-20T00:29:27;101033.16;;;4.85;100.00
82931;BME280;72705;53.346;10.248;2023-12-20T00:31:52;101012.13;;;4.81;100.00
82931;BME280;72705;53.346;10.248;2023-12-20T00:34:18;101020.97;;;4.81;100.00
82931;BME280;72705;53.346;10.248;2023-12-20T00:36:43;101018.66;;;4.77;100.00
82931;BME280;72705;53.346;10.248;2023-12-20T00:39:08;101030.22;;;4.77;100.00
82931;BME280;72705;53.346;10.248;2023-12-20T00:41:36;101001.03;;;4.63;100.00
82931;BME280;72705;53.346;10.248;2023-12-20T00:44:03;101027.44;;;4.79;100.00
82931;BME280;72705;53.346;10.248;2023-12-20T00:46:29;101028.63;;;4.75;100.00
82931;BME280;72705;53.346;10.248;2023-12-20T00:48:54;101020.00;;;4.71;100.00
82931;BME280;72705;53.346;10.248;2023-12-20T00:51:19;101029.22;;;4.67;100.00
82931;BME280;72705;53.346;10.248;2023-12-20T00:53:45;101018.28;;;4.59;100.00
82931;BME280;72705;53.346;10.248;2023-12-20T00:56:14;101028.59;;;4.64;100.00
82931;BME280;72705;53.346;10.248;2023-12-20T00:58:39;101026.06;;;4.62;100.00
82931;BME280;72705;53.346;10.248;2023-12-20T01:01:05;101014.91;;;4.68;100.00
82931;BME280;72705;53.346;10.248;2023-12-20T01:03:30;101001.03;;;4.63;100.00
82931;BME280;72705;53.346;10.248;2023-12-20T01:06:00;101014.19;;;4.77;100.00
82931;BME280;72705;53.346;10.248;2023-12-20T01:08:26;101017.59;;;4.79;100.00
82931;BME280;72705;53.346;10.248;2023-12-20T01:10:51;101014.34;;;4.87;100.00
82931;BME280;72705;53.346;10.248;2023-12-20T01:13:18;101005.22;;;4.89;100.00
82931;BME280;72705;53.346;10.248;2023-12-20T01:15:43;100994.53;;;4.89;100.00
82931;BME280;72705;53.346;10.248;2023-12-20T01:18:11;100987.97;;;4.94;100.00
82931;BME280;72705;53.346;10.248;2023-12-20T01:20:36;100989.66;;;4.95;100.00
82931;BME280;72705;53.346;10.248;2023-12-20T01:23:01;100992.09;;;4.86;100.00
82931;BME280;72705;53.346;10.248;2023-12-20T01:25:27;100993.56;;;4.91;100.00
82931;BME280;72705;53.346;10.248;2023-12-20T01:28:04;101002.31;;;4.93;100.00
82931;BME280;72705;53.346;10.248;2023-12-20T01:30:29;100988.69;;;4.84;100.00
82931;BME280;72705;53.346;10.248;2023-12-20T01:32:54;100989.38;;;4.75;100.00
82931;BME280;72705;53.346;10.248;2023-12-20T01:35:20;100993.53;;;4.68;100.00
82931;BME280;72705;53.346;10.248;2023-12-20T01:37:45;100965.59;;;4.50;100.00
82931;BME280;72705;53.346;10.248;2023-12-20T01:40:10;100980.88;;;4.48;100.00
82931;BME280;72705;53.346;10.248;2023-12-20T01:42:36;100982.44;;;4.51;100.00
82931;BME280;72705;53.346;10.248;2023-12-20T01:45:02;100982.44;;;4.51;100.00
82931;BME280;72705;53.346;10.248;2023-12-20T01:47:28;100981.59;;;4.50;100.00
82931;BME280;72705;53.346;10.248;2023-12-20T01:49:54;100977.22;;;4.49;100.00
82931;BME280;72705;53.346;10.248;2023-12-20T01:52:22;100971.41;;;4.44;100.00
82931;BME280;72705;53.346;10.248;2023-12-20T01:54:48;100975.41;;;4.50;100.00
82931;BME280;72705;53.346;10.248;2023-12-20T01:57:14;100957.66;;;4.37;100.00
82931;BME280;72705;53.346;10.248;2023-12-20T01:59:40;100972.00;;;4.47;100.00
82931;BME280;72705;53.346;10.248;2023-12-20T02:02:06;100962.38;;;4.34;100.00
82931;BME280;72705;53.346;10.248;2023-12-20T02:04:32;100962.16;;;4.37;100.00
82931;BME280;72705;53.346;10.248;2023-12-20T02:06:58;100950.00;;;4.33;100.00
82931;BME280;72705;53.346;10.248;2023-12-20T02:09:24;100954.13;;;4.26;100.00
82931;BME280;72705;53.346;10.248;2023-12-20T02:11:49;100951.56;;;4.24;100.00
82931;BME280;72705;53.346;10.248;2023-12-20T02:14:23;100958.94;;;4.21;100.00
82931;BME280;72705;53.346;10.248;2023-12-20T02:16:48;100961.59;;;4.21;100.00
82931;BME280;72705;53.346;10.248;2023-12-20T02:19:14;100965.25;;;4.20;100.00
82931;BME280;72705;53.346;10.248;2023-12-20T02:21:40;100957.28;;;4.31;100.00
82931;BME280;72705;53.346;10.248;2023-12-20T02:24:12;100961.19;;;4.38;100.00
82931;BME280;72705;53.346;10.248;2023-12-20T02:26:40;100961.91;;;4.40;100.00
82931;BME280;72705;53.346;10.248;2023-12-20T02:29:05;100958.28;;;4.41;100.00
82931;BME280;72705;53.346;10.248;2023-12-20T02:31:32;100945.88;;;4.40;100.00
82931;BME280;72705;53.346;10.248;2023-12-20T02:33:57;100935.94;;;4.42;100.00
82931;BME280;72705;53.346;10.248;2023-12-20T02:36:23;100936.66;;;4.33;100.00
82931;BME280;72705;53.346;10.248;2023-12-20T02:38:48;100940.81;;;4.37;100.00
82931;BME280;72705;53.346;10.248;2023-12-20T02:41:15;100924.50;;;4.29;100.00
82931;BME280;72705;53.346;10.248;2023-12-20T02:43:43;100933.38;;;4.29;100.00
82931;BME280;72705;53.346;10.248;2023-12-20T02:46:09;100937.84;;;4.29;100.00
82931;BME280;72705;53.346;10.248;2023-12-20T02:48:34;100933.50;;;4.39;100.00
82931;BME280;72705;53.346;10.248;2023-12-20T02:51:00;100921.97;;;4.38;100.00
82931;BME280;72705;53.346;10.248;2023-12-20T02:53:26;100916.50;;;4.29;100.00
82931;BME280;72705;53.346;10.248;2023-12-20T02:55:52;100925.25;;;4.42;100.00
82931;BME280;72705;53.346;10.248;2023-12-20T02:58:17;100925.75;;;4.47;100.00
82931;BME280;72705;53.346;10.248;2023-12-20T03:00:43;100910.47;;;4.38;100.00
82931;BME280;72705;53.346;10.248;2023-12-20T03:03:08;100929.16;;;4.49;100.00
82931;BME280;72705;53.346;10.248;2023-12-20T03:05:34;100925.88;;;4.45;100.00
82931;BME280;72705;53.346;10.248;2023-12-20T03:07:59;100924.03;;;4.46;100.00
82931;BME280;72705;53.346;10.248;2023-12-20T03:10:24;100903.91;;;4.31;100.00
82931;BME280;72705;53.346;10.248;2023-12-20T03:12:50;100912.28;;;4.37;100.00
82931;BME280;72705;53.346;10.248;2023-12-20T03:15:17;100903.41;;;4.37;100.00
82931;BME280;72705;53.346;10.248;2023-12-20T03:17:42;100901.94;;;4.33;100.00
82931;BME280;72705;53.346;10.248;2023-12-20T03:20:08;100904.13;;;4.28;100.00
82931;BME280;72705;53.346;10.248;2023-12-20T03:22:33;100890.06;;;4.26;100.00
82931;BME280;72705;53.346;10.248;2023-12-20T03:24:59;100881.31;;;4.24;100.00
82931;BME280;72705;53.346;10.248;2023-12-20T03:27:24;100884.47;;;4.29;100.00
82931;BME280;72705;53.346;10.248;2023-12-20T03:29:50;100889.94;;;4.38;100.00
82931;BME280;72705;53.346;10.248;2023-12-20T03:32:15;100881.69;;;4.41;100.00
82931;BME280;72705;53.346;10.248;2023-12-20T03:34:40;100876.72;;;4.37;100.00
82931;BME280;72705;53.346;10.248;2023-12-20T03:37:06;100879.88;;;4.42;100.00
82931;BME280;72705;53.346;10.248;2023-12-20T03:39:31;100881.31;;;4.46;100.00
82931;BME280;72705;53.346;10.248;2023-12-20T03:41:57;100870.66;;;4.35;100.00
82931;BME280;72705;53.346;10.248;2023-12-20T03:44:22;100873.94;;;4.50;100.00
82931;BME280;72705;53.346;10.248;2023-12-20T03:46:50;100879.13;;;4.51;100.00
82931;BME280;72705;53.346;10.248;2023-12-20T03:49:15;100863.84;;;4.53;100.00
82931;BME280;72705;53.346;10.248;2023-12-20T03:51:40;100869.19;;;4.53;100.00
82931;BME280;72705;53.346;10.248;2023-12-20T03:54:07;100875.28;;;4.55;100.00
82931;BME280;72705;53.346;10.248;2023-12-20T03:56:32;100858.41;;;4.55;100.00
82931;BME280;72705;53.346;10.248;2023-12-20T03:58:58;100857.56;;;4.54;100.00
82931;BME280;72705;53.346;10.248;2023-12-20T04:01:27;100870.66;;;4.68;100.00
82931;BME280;72705;53.346;10.248;2023-12-20T04:03:52;100846.59;;;4.57;100.00
82931;BME280;72705;53.346;10.248;2023-12-20T04:06:18;100855.13;;;4.62;100.00
82931;BME280;72705;53.346;10.248;2023-12-20T04:08:44;100856.56;;;4.66;100.00
82931;BME280;72705;53.346;10.248;2023-12-20T04:11:09;100867.25;;;4.66;100.00
82931;BME280;72705;53.346;10.248;2023-12-20T04:13:34;100853.16;;;4.64;100.00
82931;BME280;72705;53.346;10.248;2023-12-20T04:16:00;100842.25;;;4.67;100.00
82931;BME280;72705;53.346;10.248;2023-12-20T04:18:25;100842.13;;;4.69;100.00
82931;BME280;72705;53.346;10.248;2023-12-20T04:20:50;100839.78;;;4.75;100.00
82931;BME280;72705;53.346;10.248;2023-12-20T04:23:16;100831.31;;;4.70;100.00
82931;BME280;72705;53.346;10.248;2023-12-20T04:25:42;100838.34;;;4.71;100.00
82931;BME280;72705;53.346;10.248;2023-12-20T04:28:07;100829.38;;;4.72;100.00
82931;BME280;72705;53.346;10.248;2023-12-20T04:30:36;100813.84;;;4.66;100.00
82931;BME280;72705;53.346;10.248;2023-12-20T04:33:01;100824.63;;;4.76;100.00
82931;BME280;72705;53.346;10.248;2023-12-20T04:35:27;100825.94;;;4.81;100.00
82931;BME280;72705;53.346;10.248;2023-12-20T04:37:52;100803.25;;;4.76;100.00
82931;BME280;72705;53.346;10.248;2023-12-20T04:40:20;100794.66;;;4.72;100.00
82931;BME280;72705;53.346;10.248;2023-12-20T04:42:47;100810.06;;;4.80;100.00
82931;BME280;72705;53.346;10.248;2023-12-20T04:45:35;100802.16;;;4.78;100.00
82931;BME280;72705;53.346;10.248;2023-12-20T04:48:02;100809.56;;;4.86;100.00
82931;BME280;72705;53.346;10.248;2023-12-20T04:50:27;100794.25;;;4.77;100.00
82931;BME280;72705;53.346;10.248;2023-12-20T04:52:53;100799.97;;;4.83;100.00
82931;BME280;72705;53.346;10.248;2023-12-20T04:55:31;100782.38;;;4.81;100.00
82931;BME280;72705;53.346;10.248;2023-12-20T04:57:56;100797.25;;;4.95;100.00
82931;BME280;72705;53.346;10.248;2023-12-20T05:00:22;100780.53;;;4.81;100.00
82931;BME280;72705;53.346;10.248;2023-12-20T05:02:47;100792.53;;;4.98;100.00
82931;BME280;72705;53.346;10.248;2023-12-20T05:05:12;100790.22;;;5.05;100.00
82931;BME280;72705;53.346;10.248;2023-12-20T05:07:40;100776.56;;;5.08;100.00
82931;BME280;72705;53.346;10.248;2023-12-20T05:10:06;100769.78;;;5.04;100.00
82931;BME280;72705;53.346;10.248;2023-12-20T05:12:40;100790.91;;;5.07;100.00
82931;BME280;72705;53.346;10.248;2023-12-20T05:15:06;100777.06;;;5.02;100.00
82931;BME280;72705;53.346;10.248;2023-12-20T05:17:32;100795.28;;;5.08;100.00
82931;BME280;72705;53.346;10.248;2023-12-20T05:19:59;100796.25;;;5.07;100.00
82931;BME280;72705;53.346;10.248;2023-12-20T05:22:24;100778.78;;;5.03;100.00
82931;BME280;72705;53.346;10.248;2023-12-20T05:24:52;100774.88;;;5.07;100.00
82931;BME280;72705;53.346;10.248;2023-12-20T05:27:19;100764.09;;;4.97;100.00
82931;BME280;72705;53.346;10.248;2023-12-20T05:29:45;100781.34;;;5.04;100.00
82931;BME280;72705;53.346;10.248;2023-12-20T05:32:10;100766.38;;;5.02;100.00
82931;BME280;72705;53.346;10.248;2023-12-20T05:34:35;100775.66;;;4.98;100.00
82931;BME280;72705;53.346;10.248;2023-12-20T05:37:01;100787.25;;;5.08;100.00
82931;BME280;72705;53.346;10.248;2023-12-20T05:39:27;100774.06;;;4.95;100.00
82931;BME280;72705;53.346;10.248;2023-12-20T05:41:52;100789.47;;;5.03;100.00
82931;BME280;72705;53.346;10.248;2023-12-20T05:44:17;100781.34;;;5.04;100.00
82931;BME280;72705;53.346;10.248;2023-12-20T05:46:44;100779.97;;;5.10;100.00
82931;BME280;72705;53.346;10.248;2023-12-20T05:49:09;100778.72;;;5.14;100.00
82931;BME280;72705;53.346;10.248;2023-12-20T05:51:35;100774.97;;;5.16;100.00
82931;BME280;72705;53.346;10.248;2023-12-20T05:54:09;100769.88;;;5.13;100.00
82931;BME280;72705;53.346;10.248;2023-12-20T05:56:34;100767.81;;;5.17;100.00
82931;BME280;72705;53.346;10.248;2023-12-20T05:58:59;100744.50;;;5.08;100.00
82931;BME280;72705;53.346;10.248;2023-12-20T06:01:29;100764.84;;;5.20;100.00
82931;BME280;72705;53.346;10.248;2023-12-20T06:03:54;100768.03;;;5.14;100.00
82931;BME280;72705;53.346;10.248;2023-12-20T06:06:24;100757.56;;;5.22;100.00
82931;BME280;72705;53.346;10.248;2023-12-20T06:08:51;100762.06;;;5.21;100.00
82931;BME280;72705;53.346;10.248;2023-12-20T06:11:19;100768.72;;;5.27;100.00
82931;BME280;72705;53.346;10.248;2023-12-20T06:13:57;100765.94;;;5.28;99.91
82931;BME280;72705;53.346;10.248;2023-12-20T06:16:23;100749.09;;;5.17;100.00
82931;BME280;72705;53.346;10.248;2023-12-20T06:18:48;100763.38;;;5.27;100.00
82931;BME280;72705;53.346;10.248;2023-12-20T06:21:18;100758.47;;;5.32;99.43
82931;BME280;72705;53.346;10.248;2023-12-20T06:23:43;100761.16;;;5.32;99.10
82931;BME280;72705;53.346;10.248;2023-12-20T06:26:09;100754.09;;;5.31;99.28
82931;BME280;72705;53.346;10.248;2023-12-20T06:28:34;100745.13;;;5.32;99.24
82931;BME280;72705;53.346;10.248;2023-12-20T06:31:00;100735.41;;;5.31;98.84
82931;BME280;72705;53.346;10.248;2023-12-20T06:33:27;100744.53;;;5.28;99.49
82931;BME280;72705;53.346;10.248;2023-12-20T06:35:54;100750.47;;;5.32;99.84
82931;BME280;72705;53.346;10.248;2023-12-20T06:38:20;100735.28;;;5.33;99.06
82931;BME280;72705;53.346;10.248;2023-12-20T06:40:46;100733.22;;;5.25;99.41
82931;BME280;72705;53.346;10.248;2023-12-20T06:43:12;100721.66;;;5.36;99.49
82931;BME280;72705;53.346;10.248;2023-12-20T06:45:39;100712.84;;;5.24;99.18
82931;BME280;72705;53.346;10.248;2023-12-20T06:48:06;100740.75;;;5.31;99.46
82931;BME280;72705;53.346;10.248;2023-12-20T06:50:32;100724.06;;;5.18;99.12
82931;BME280;72705;53.346;10.248;2023-12-20T06:52:58;100734.25;;;5.24;100.00
82931;BME280;72705;53.346;10.248;2023-12-20T06:55:23;100706.56;;;5.14;99.45
82931;BME280;72705;53.346;10.248;2023-12-20T06:57:49;100723.78;;;5.21;99.74
82931;BME280;72705;53.346;10.248;2023-12-20T07:00:15;100710.53;;;5.19;99.11
82931;BME280;72705;53.346;10.248;2023-12-20T07:02:40;100700.38;;;5.13;99.68
82931;BME280;72705;53.346;10.248;2023-12-20T07:05:06;100702.16;;;5.24;99.12
82931;BME280;72705;53.346;10.248;2023-12-20T07:07:31;100705.59;;;5.15;99.21
82931;BME280;72705;53.346;10.248;2023-12-20T07:09:57;100695.75;;;5.15;99.33
82931;BME280;72705;53.346;10.248;2023-12-20T07:12:22;100678.66;;;5.07;99.58
82931;BME280;72705;53.346;10.248;2023-12-20T07:14:48;100688.59;;;5.16;99.38
82931;BME280;72705;53.346;10.248;2023-12-20T07:17:13;100703.25;;;5.21;99.78
82931;BME280;72705;53.346;10.248;2023-12-20T07:19:40;100704.09;;;5.22;100.00
82931;BME280;72705;53.346;10.248;2023-12-20T07:22:07;100696.53;;;5.27;99.99
82931;BME280;72705;53.346;10.248;2023-12-20T07:24:33;100705.28;;;5.29;100.00
82931;BME280;72705;53.346;10.248;2023-12-20T07:27:00;100692.88;;;5.28;100.00
82931;BME280;72705;53.346;10.248;2023-12-20T07:29:25;100704.16;;;5.32;100.00
82931;BME280;72705;53.346;10.248;2023-12-20T07:31:53;100703.41;;;5.41;99.13
82931;BME280;72705;53.346;10.248;2023-12-20T07:34:19;100719.44;;;5.41;99.79
82931;BME280;72705;53.346;10.248;2023-12-20T07:36:45;100699.13;;;5.38;100.00
82931;BME280;72705;53.346;10.248;2023-12-20T07:39:10;100701.56;;;5.41;99.73
82931;BME280;72705;53.346;10.248;2023-12-20T07:41:35;100700.72;;;5.41;99.31
82931;BME280;72705;53.346;10.248;2023-12-20T07:44:01;100703.72;;;5.47;99.11
82931;BME280;72705;53.346;10.248;2023-12-20T07:46:28;100694.25;;;5.43;99.09
82931;BME280;72705;53.346;10.248;2023-12-20T07:48:54;100689.06;;;5.42;99.67
82931;BME280;72705;53.346;10.248;2023-12-20T07:51:19;100686.56;;;5.29;99.97
82931;BME280;72705;53.346;10.248;2023-12-20T07:53:46;100679.84;;;5.35;99.33
82931;BME280;72705;53.346;10.248;2023-12-20T07:56:17;100692.56;;;5.42;99.46
82931;BME280;72705;53.346;10.248;2023-12-20T07:58:43;100679.72;;;5.36;100.00
82931;BME280;72705;53.346;10.248;2023-12-20T08:01:08;100680.19;;;5.41;99.06
82931;BME280;72705;53.346;10.248;2023-12-20T08:03:34;100662.56;;;5.39;99.00
82931;BME280;72705;53.346;10.248;2023-12-20T08:05:59;100656.75;;;5.34;99.50
82931;BME280;72705;53.346;10.248;2023-12-20T08:08:25;100676.38;;;5.44;99.84
82931;BME280;72705;53.346;10.248;2023-12-20T08:10:51;100687.41;;;5.50;99.84
82931;BME280;72705;53.346;10.248;2023-12-20T08:13:16;100682.72;;;5.43;100.00
82931;BME280;72705;53.346;10.248;2023-12-20T08:15:42;100680.63;;;5.46;100.00
82931;BME280;72705;53.346;10.248;2023-12-20T08:18:07;100672.16;;;5.41;100.00
82931;BME280;72705;53.346;10.248;2023-12-20T08:20:32;100665.97;;;5.41;100.00
82931;BME280;72705;53.346;10.248;2023-12-20T08:22:58;100673.16;;;5.50;100.00
82931;BME280;72705;53.346;10.248;2023-12-20T08:25:23;100655.84;;;5.44;100.00
82931;BME280;72705;53.346;10.248;2023-12-20T08:27:50;100645.13;;;5.44;100.00
82931;BME280;72705;53.346;10.248;2023-12-20T08:30:15;100653.34;;;5.52;100.00
82931;BME280;72705;53.346;10.248;2023-12-20T08:32:45;100656.03;;;5.52;100.00
82931;BME280;72705;53.346;10.248;2023-12-20T08:35:11;100656.75;;;5.54;100.00
82931;BME280;72705;53.346;10.248;2023-12-20T08:37:36;100631.31;;;5.39;100.00
82931;BME280;72705;53.346;10.248;2023-12-20T08:40:02;100642.91;;;5.49;100.00
82931;BME280;72705;53.346;10.248;2023-12-20T08:42:27;100616.53;;;5.35;100.00
82931;BME280;72705;53.346;10.248;2023-12-20T08:44:56;100631.97;;;5.52;100.00
82931;BME280;72705;53.346;10.248;2023-12-20T08:47:22;100610.81;;;5.49;100.00
82931;BME280;72705;53.346;10.248;2023-12-20T08:49:47;100631.72;;;5.65;100.00
82931;BME280;72705;53.346;10.248;2023-12-20T08:52:13;100631.16;;;5.61;99.80
82931;BME280;72705;53.346;10.248;2023-12-20T08:54:38;100631.75;;;5.75;98.72
82931;BME280;72705;53.346;10.248;2023-12-20T08:57:04;100607.00;;;5.73;98.10
82931;BME280;72705;53.346;10.248;2023-12-20T08:59:31;100620.47;;;5.92;97.89
82931;BME280;72705;53.346;10.248;2023-12-20T09:01:57;100615.25;;;6.00;97.30
82931;BME280;72705;53.346;10.248;2023-12-20T09:04:22;100596.69;;;5.98;97.28
82931;BME280;72705;53.346;10.248;2023-12-20T09:06:48;100598.81;;;6.04;97.52
82931;BME280;72705;53.346;10.248;2023-12-20T09:09:15;100622.31;;;6.01;97.94
82931;BME280;72705;53.346;10.248;2023-12-20T09:11:41;100622.66;;;5.87;99.42
82931;BME280;72705;53.346;10.248;2023-12-20T09:14:07;100592.16;;;5.59;99.79
82931;BME280;72705;53.346;10.248;2023-12-20T09:16:32;100637.66;;;5.68;100.00
82931;BME280;72705;53.346;10.248;2023-12-20T09:18:58;100610.81;;;5.49;100.00
82931;BME280;72705;53.346;10.248;2023-12-20T09:21:23;100589.34;;;5.30;100.00
82931;BME280;72705;53.346;10.248;2023-12-20T09:23:49;100607.25;;;5.39;100.00
82931;BME280;72705;53.346;10.248;2023-12-20T09:26:14;100613.84;;;5.35;100.00
82931;BME280;72705;53.346;10.248;2023-12-20T09:28:40;100579.72;;;5.18;100.00
82931;BME280;72705;53.346;10.248;2023-12-20T09:31:06;100601.94;;;5.18;100.00
82931;BME280;72705;53.346;10.248;2023-12-20T09:33:32;100567.25;;;5.07;100.00
82931;BME280;72705;53.346;10.248;2023-12-20T09:35:57;100581.34;;;5.09;100.00
82931;BME280;72705;53.346;10.248;2023-12-20T09:38:23;100588.63;;;5.07;100.00
82931;BME280;72705;53.346;10.248;2023-12-20T09:40:48;100587.25;;;5.13;100.00
82931;BME280;72705;53.346;10.248;2023-12-20T09:43:15;100623.38;;;5.28;100.00
82931;BME280;72705;53.346;10.248;2023-12-20T09:45:46;100646.72;;;5.26;100.00
82931;BME280;72705;53.346;10.248;2023-12-20T09:48:11;100634.31;;;5.25;100.00
82931;BME280;72705;53.346;10.248;2023-12-20T09:50:37;100622.72;;;5.15;100.00
82931;BME280;72705;53.346;10.248;2023-12-20T09:53:04;100632.56;;;5.14;100.00
82931;BME280;72705;53.346;10.248;2023-12-20T09:55:31;100602.44;;;5.12;100.00
82931;BME280;72705;53.346;10.248;2023-12-20T09:57:59;100582.06;;;4.91;100.00
82931;BME280;72705;53.346;10.248;2023-12-20T10:00:24;100594.06;;;4.96;100.00
82931;BME280;72705;53.346;10.248;2023-12-20T10:02:58;100609.13;;;4.97;100.00
82931;BME280;72705;53.346;10.248;2023-12-20T10:05:33;100585.03;;;4.87;100.00
82931;BME280;72705;53.346;10.248;2023-12-20T10:08:00;100592.63;;;4.92;100.00
82931;BME280;72705;53.346;10.248;2023-12-20T10:10:26;100617.91;;;5.09;100.00
82931;BME280;72705;53.346;10.248;2023-12-20T10:13:06;100614.25;;;5.10;100.00
82931;BME280;72705;53.346;10.248;2023-12-20T10:15:33;100599.72;;;5.03;100.00
82931;BME280;72705;53.346;10.248;2023-12-20T10:17:58;100601.88;;;5.09;100.00
82931;BME280;72705;53.346;10.248;2023-12-20T10:20:24;100595.34;;;5.02;100.00
82931;BME280;72705;53.346;10.248;2023-12-20T10:22:49;100590.22;;;4.89;100.00
82931;BME280;72705;53.346;10.248;2023-12-20T10:25:15;100609.06;;;4.87;100.00
82931;BME280;72705;53.346;10.248;2023-12-20T10:27:40;100596.25;;;4.70;100.00
82931;BME280;72705;53.346;10.248;2023-12-20T10:30:06;100588.13;;;4.72;100.00
82931;BME280;72705;53.346;10.248;2023-12-20T10:32:31;100617.38;;;4.73;100.00
82931;BME280;72705;53.346;10.248;2023-12-20T10:34:57;100594.25;;;4.63;100.00
82931;BME280;72705;53.346;10.248;2023-12-20T10:37:22;100601.41;;;4.62;100.00
82931;BME280;72705;53.346;10.248;2023-12-20T10:39:52;100612.69;;;4.66;100.00
82931;BME280;72705;53.346;10.248;2023-12-20T10:42:22;100629.16;;;4.71;100.00
82931;BME280;72705;53.346;10.248;2023-12-20T10:44:48;100596.09;;;4.51;100.00
82931;BME280;72705;53.346;10.248;2023-12-20T10:47:14;100615.78;;;4.50;100.00
82931;BME280;72705;53.346;10.248;2023-12-20T10:49:40;100622.78;;;4.62;100.00
82931;BME280;72705;53.346;10.248;2023-12-20T10:52:08;100615.28;;;4.56;100.00
82931;BME280;72705;53.346;10.248;2023-12-20T10:54:35;100576.28;;;4.33;100.00
82931;BME280;72705;53.346;10.248;2023-12-20T10:57:03;100615.41;;;4.55;100.00
82931;BME280;72705;53.346;10.248;2023-12-20T10:59:33;100619.16;;;4.52;100.00
82931;BME280;72705;53.346;10.248;2023-12-20T11:01:59;100625.75;;;4.48;100.00
82931;BME280;72705;53.346;10.248;2023-12-20T11:04:31;100601.59;;;4.38;100.00
82931;BME280;72705;53.346;10.248;2023-12-20T11:07:12;100598.56;;;4.43;100.00
82931;BME280;72705;53.346;10.248;2023-12-20T11:09:49;100605.81;;;4.52;100.00
82931;BME280;72705;53.346;10.248;2023-12-20T11:12:29;100583.47;;;4.53;100.00
82931;BME280;72705;53.346;10.248;2023-12-20T11:14:58;100570.59;;;4.58;100.00
82931;BME280;72705;53.346;10.248;2023-12-20T11:17:28;100579.78;;;4.65;100.00
82931;BME280;72705;53.346;10.248;2023-12-20T11:22:27;100595.22;;;4.82;100.00
82931;BME280;72705;53.346;10.248;2023-12-20T11:24:53;100585.72;;;4.89;100.00
82931;BME280;72705;53.346;10.248;2023-12-20T11:27:19;100578.66;;;4.88;100.00
82931;BME280;72705;53.346;10.248;2023-12-20T11:29:52;100588.91;;;5.04;97.80
82931;BME280;72705;53.346;10.248;2023-12-20T11:34:54;100584.13;;;5.08;96.89
82931;BME280;72705;53.346;10.248;2023-12-20T11:37:20;100575.16;;;5.09;96.44
82931;BME280;72705;53.346;10.248;2023-12-20T11:39:54;100574.44;;;5.07;95.28
82931;BME280;72705;53.346;10.248;2023-12-20T11:42:20;100580.81;;;5.15;95.31
82931;BME280;72705;53.346;10.248;2023-12-20T11:44:47;100583.16;;;5.09;96.53
82931;BME280;72705;53.346;10.248;2023-12-20T11:47:13;100594.22;;;5.25;95.45
82931;BME280;72705;53.346;10.248;2023-12-20T11:49:46;100598.34;;;5.29;95.70
82931;BME280;72705;53.346;10.248;2023-12-20T11:52:12;100604.13;;;5.34;94.65
82931;BME280;72705;53.346;10.248;2023-12-20T11:54:38;100573.56;;;5.27;95.38
82931;BME280;72705;53.346;10.248;2023-12-20T11:57:04;100589.69;;;5.46;94.31
82931;BME280;72705;53.346;10.248;2023-12-20T11:59:30;100576.75;;;5.51;93.81
82931;BME280;72705;53.346;10.248;2023-12-20T12:01:58;100550.88;;;5.52;93.53
82931;BME280;72705;53.346;10.248;2023-12-20T12:04:26;100583.03;;;5.61;93.23
82931;BME280;72705;53.346;10.248;2023-12-20T12:06:52;100579.81;;;5.77;92.38
82931;BME280;72705;53.346;10.248;2023-12-20T12:09:17;100573.75;;;5.75;92.86
82931;BME280;72705;53.346;10.248;2023-12-20T12:11:43;100577.41;;;5.74;93.01
82931;BME280;72705;53.346;10.248;2023-12-20T12:14:09;100581.66;;;5.77;92.78
82931;BME280;72705;53.346;10.248;2023-12-20T12:16:34;100575.44;;;5.76;92.47
82931;BME280;72705;53.346;10.248;2023-12-20T12:19:00;100581.38;;;5.80;91.41
82931;BME280;72705;53.346;10.248;2023-12-20T12:21:25;100593.31;;;5.76;94.50
82931;BME280;72705;53.346;10.248;2023-12-20T12:23:51;100581.63;;;5.67;94.64
82931;BME280;72705;53.346;10.248;2023-12-20T12:26:16;100584.88;;;5.80;93.86
82931;BME280;72705;53.346;10.248;2023-12-20T12:28:42;100587.84;;;5.77;93.70
82931;BME280;72705;53.346;10.248;2023-12-20T12:31:09;100588.41;;;5.81;92.82
82931;BME280;72705;53.346;10.248;2023-12-20T12:33:38;100565.88;;;5.74;91.85
82931;BME280;72705;53.346;10.248;2023-12-20T12:36:04;100567.53;;;5.75;92.90
82931;BME280;72705;53.346;10.248;2023-12-20T12:38:32;100580.25;;;5.82;91.55
82931;BME280;72705;53.346;10.248;2023-12-20T12:40:58;100567.13;;;5.69;91.36
82931;BME280;72705;53.346;10.248;2023-12-20T12:43:23;100574.00;;;5.62;92.19